Time;durP1;ratioP1;P1;durP2;ratioP2;P2;SDS_P1;SDS_P2;PMS_P1;PMS_P2;Temp;Humidity;BMP_temperature;BMP_pressure;BME280_temperature;BME280_humidity;BME280_pressure;Samples;Min_cycle;Max_cycle;Signal;HPM_P1;HPM_P2
2022/09/04 00:02:03;;;;;;;12.52;8.52;;;;;;;17.25;100.00;100403.06;8339184;28;20065;-50
2022/09/04 00:06:12;;;;;;;10.55;9.32;;;;;;;17.33;100.00;100411.19;8339910;28;20112;-48
2022/09/04 00:10:21;;;;;;;9.90;8.50;;;;;;;17.23;100.00;100418.81;8353314;28;20522;-51
2022/09/04 00:14:53;;;;;;;13.80;9.15;;;;;;;17.07;100.00;100424.41;8352371;28;20037;-51
2022/09/04 00:19:08;;;;;;;9.80;8.60;;;;;;;17.05;100.00;100421.84;8377553;28;20045;-50
2022/09/04 00:23:24;;;;;;;12.40;8.82;;;;;;;17.06;100.00;100428.16;8384348;28;20048;-51
2022/09/04 00:27:29;;;;;;;11.80;8.95;;;;;;;17.12;100.00;100421.97;8376151;28;20216;-51
2022/09/04 00:31:37;;;;;;;12.60;8.82;;;;;;;17.17;100.00;100430.47;8349520;28;20490;-48
2022/09/04 00:35:43;;;;;;;12.30;9.73;;;;;;;17.14;100.00;100433.56;8350523;28;20509;-51
2022/09/04 00:39:52;;;;;;;13.10;10.80;;;;;;;17.11;100.00;100442.97;8337743;28;20041;-48
2022/09/04 00:44:20;;;;;;;13.45;10.30;;;;;;;17.06;100.00;100444.56;8319221;28;20034;-51
2022/09/04 00:49:00;;;;;;;15.00;10.77;;;;;;;16.99;100.00;100443.59;8374993;28;20599;-50
2022/09/04 00:58:17;;;;;;;15.02;11.13;;;;;;;16.86;100.00;100448.81;8300926;28;20402;-49
2022/09/04 01:02:31;;;;;;;17.90;12.20;;;;;;;16.80;100.00;100449.56;8296178;28;20038;-48
2022/09/04 01:11:31;;;;;;;16.63;12.05;;;;;;;16.70;100.00;100457.13;8389931;27;20817;-49
2022/09/04 01:15:46;;;;;;;16.10;12.63;;;;;;;16.69;100.00;100458.16;8356331;28;20041;-47
2022/09/04 01:20:14;;;;;;;18.10;12.82;;;;;;;16.60;100.00;100456.53;8355519;28;20063;-48
2022/09/04 01:24:51;;;;;;;17.77;12.55;;;;;;;16.57;100.00;100467.81;8394031;28;20077;-49
2022/09/04 01:29:18;;;;;;;16.95;12.13;;;;;;;16.50;100.00;100469.56;8369614;28;20104;-48
2022/09/04 01:33:53;;;;;;;16.33;11.93;;;;;;;16.45;100.00;100466.50;8365734;28;20049;-47
2022/09/04 01:38:05;;;;;;;16.65;12.07;;;;;;;16.52;100.00;100467.47;8355804;28;20069;-50
2022/09/04 01:47:32;;;;;;;15.05;11.23;;;;;;;16.41;100.00;100482.34;8380524;28;20110;-49
2022/09/04 01:56:18;;;;;;;15.82;11.65;;;;;;;16.37;100.00;100480.16;8342491;27;20400;-50
2022/09/04 02:00:22;;;;;;;17.00;11.80;;;;;;;16.19;100.00;100487.78;8309268;28;20069;-48
2022/09/04 02:04:46;;;;;;;20.95;11.98;;;;;;;16.07;100.00;100481.81;8319733;28;20030;-48
2022/09/04 02:09:15;;;;;;;21.55;13.07;;;;;;;16.04;100.00;100484.06;8320817;28;20042;-53
2022/09/04 02:13:34;;;;;;;19.20;12.18;;;;;;;15.99;100.00;100489.19;8320444;28;20414;-53
2022/09/04 02:17:46;;;;;;;15.48;11.98;;;;;;;16.01;100.00;100490.72;8320468;28;20095;-53
2022/09/04 02:22:05;;;;;;;16.83;11.57;;;;;;;16.00;100.00;100497.19;8309375;28;20033;-50
2022/09/04 02:26:15;;;;;;;16.20;10.88;;;;;;;15.95;100.00;100496.03;8307372;28;20652;-51
2022/09/04 02:30:17;;;;;;;14.27;9.85;;;;;;;15.93;100.00;100500.81;8319730;28;20121;-51
2022/09/04 02:34:46;;;;;;;15.45;9.88;;;;;;;15.90;100.00;100504.75;8349789;28;20385;-52
2022/09/04 02:43:47;;;;;;;13.85;9.40;;;;;;;15.79;100.00;100513.28;8392428;27;20542;-53
2022/09/04 02:47:59;;;;;;;10.98;9.25;;;;;;;15.77;100.00;100516.19;8385356;28;20126;-52
2022/09/04 02:52:14;;;;;;;11.93;9.50;;;;;;;15.82;100.00;100512.09;8386355;28;20044;-47
2022/09/04 03:01:01;;;;;;;12.73;9.15;;;;;;;15.77;100.00;100519.94;8394828;27;20437;-48
2022/09/04 03:05:24;;;;;;;11.90;7.90;;;;;;;15.73;100.00;100517.56;8384290;28;20414;-47
2022/09/04 03:09:47;;;;;;;11.82;7.90;;;;;;;15.73;100.00;100525.75;8378327;28;20040;-49
2022/09/04 03:14:10;;;;;;;8.60;7.65;;;;;;;15.64;100.00;100515.88;8382349;28;20048;-48
2022/09/04 03:18:51;;;;;;;8.45;7.00;;;;;;;15.66;100.00;100522.00;8383113;28;20043;-47
2022/09/04 03:23:00;;;;;;;9.98;6.55;;;;;;;15.65;100.00;100523.00;8384916;28;20041;-47
2022/09/04 03:27:05;;;;;;;9.70;6.43;;;;;;;15.67;100.00;100520.13;8383013;28;20060;-47
2022/09/04 03:31:35;;;;;;;8.02;5.82;;;;;;;15.69;100.00;100528.97;8376576;28;20045;-49
2022/09/04 03:35:45;;;;;;;8.15;6.15;;;;;;;15.63;100.00;100530.53;8375481;28;20029;-47
2022/09/04 03:40:00;;;;;;;7.80;6.60;;;;;;;15.68;100.00;100528.13;8382560;28;20032;-47
2022/09/04 03:44:33;;;;;;;9.32;5.55;;;;;;;15.59;100.00;100529.16;8384001;28;20043;-50
2022/09/04 03:49:04;;;;;;;8.60;5.93;;;;;;;15.63;100.00;100538.72;8377644;28;20517;-48
2022/09/04 03:53:29;;;;;;;6.85;6.15;;;;;;;15.61;100.00;100538.03;8382586;28;20045;-48
2022/09/04 03:58:09;;;;;;;8.15;6.55;;;;;;;15.59;100.00;100534.59;8380915;28;20040;-49
2022/09/04 04:02:24;;;;;;;8.40;6.35;;;;;;;15.53;100.00;100534.47;8382386;28;20048;-50
2022/09/04 04:06:51;;;;;;;7.20;6.50;;;;;;;15.50;100.00;100541.09;8383540;28;20043;-47
2022/09/04 04:11:31;;;;;;;8.43;6.20;;;;;;;15.52;100.00;100549.94;8362829;28;20408;-50
2022/09/04 04:16:03;;;;;;;7.53;6.68;;;;;;;15.60;100.00;100551.81;8356575;28;20047;-49
2022/09/04 04:20:37;;;;;;;9.30;6.97;;;;;;;15.60;100.00;100552.69;8357573;28;20571;-50
2022/09/04 04:24:57;;;;;;;;;;;;;;;15.62;100.00;100556.06;8357197;28;20439;-49
2022/09/04 04:33:41;;;;;;;7.00;6.18;;;;;;;15.65;100.00;100565.78;8292423;28;20486;-47
2022/09/04 04:38:17;;;;;;;7.07;6.30;;;;;;;15.61;100.00;100573.44;8284458;28;20475;-50
2022/09/04 04:42:31;;;;;;;7.97;6.45;;;;;;;15.67;100.00;100586.41;8317625;28;20439;-48
2022/09/04 04:47:06;;;;;;;8.95;6.63;;;;;;;15.60;100.00;100587.25;8310845;28;20401;-48
2022/09/04 04:51:30;;;;;;;8.18;6.05;;;;;;;15.49;100.00;100585.72;8301418;28;20042;-51
2022/09/04 04:55:41;;;;;;;9.75;6.22;;;;;;;15.54;100.00;100591.53;8314436;28;20411;-51
2022/09/04 05:00:21;;;;;;;7.97;6.03;;;;;;;15.52;100.00;100588.09;8308965;28;20048;-48
2022/09/04 05:04:36;;;;;;;8.65;6.13;;;;;;;15.58;100.00;100598.31;8318371;28;20033;-48
2022/09/04 05:08:46;;;;;;;8.20;6.63;;;;;;;15.57;100.00;100612.97;8313206;28;20503;-48
2022/09/04 05:13:14;;;;;;;8.07;6.10;;;;;;;15.63;100.00;100620.47;8309271;28;20045;-51
2022/09/04 05:17:39;;;;;;;7.40;6.13;;;;;;;15.64;100.00;100619.44;8280866;28;20088;-51
2022/09/04 05:21:52;;;;;;;8.80;6.18;;;;;;;15.70;100.00;100623.34;8283597;28;20038;-48
2022/09/04 05:31:08;;;;;;;6.22;5.63;;;;;;;15.87;100.00;100643.28;8330234;27;20392;-48
2022/09/04 05:35:16;;;;;;;6.18;5.57;;;;;;;16.04;100.00;100642.25;8310734;28;20172;-50
2022/09/04 05:39:28;;;;;;;6.95;5.13;;;;;;;16.22;100.00;100635.56;8318604;28;20499;-50
2022/09/04 05:43:56;;;;;;;6.90;5.40;;;;;;;16.48;100.00;100651.75;8315757;28;20049;-47
2022/09/04 05:48:15;;;;;;;6.28;5.47;;;;;;;16.70;100.00;100656.44;8319140;28;20095;-50
2022/09/04 05:52:49;;;;;;;4.68;4.15;;;;;;;16.83;100.00;100659.44;8319568;28;20494;-49
2022/09/04 05:57:08;;;;;;;6.50;4.43;;;;;;;17.11;100.00;100677.09;8316735;28;20133;-49
2022/09/04 06:01:38;;;;;;;6.85;4.43;;;;;;;17.34;100.00;100669.78;8310520;28;20089;-48
2022/09/04 06:10:32;;;;;;;6.22;4.50;;;;;;;17.82;100.00;100688.63;8390893;27;20395;-48
2022/09/04 06:23:53;;;;;;;7.97;4.05;;;;;;;18.36;100.00;100690.16;8294714;28;20436;-50
2022/09/04 06:28:30;;;;;;;5.32;3.78;;;;;;;18.69;100.00;100686.06;8278553;28;20076;-47
2022/09/04 06:33:05;;;;;;;4.97;3.80;;;;;;;18.91;100.00;100701.56;8286032;28;20050;-49
2022/09/04 06:37:33;;;;;;;4.82;3.63;;;;;;;19.16;100.00;100707.59;8285961;28;20038;-47
2022/09/04 06:42:03;;;;;;;4.82;4.13;;;;;;;19.20;100.00;100708.91;8282609;28;20050;-49
2022/09/04 06:46:30;;;;;;;3.80;3.47;;;;;;;19.55;100.00;100716.34;8279592;28;20047;-47
2022/09/04 06:50:58;;;;;;;5.53;3.90;;;;;;;19.52;100.00;100714.81;8282268;28;20034;-52
2022/09/04 06:55:27;;;;;;;4.07;3.70;;;;;;;19.64;100.00;100717.06;8275325;28;20062;-50
2022/09/04 07:04:14;;;;;;;5.28;3.90;;;;;;;20.22;98.80;100730.59;8395540;27;20470;-47
2022/09/04 07:08:44;;;;;;;5.25;3.47;;;;;;;20.61;97.56;100736.38;8397321;27;20036;-50
2022/09/04 07:13:20;;;;;;;3.65;3.20;;;;;;;20.91;94.61;100732.38;8382267;28;20097;-50
2022/09/04 07:17:31;;;;;;;5.85;3.75;;;;;;;20.92;93.33;100732.16;8368905;28;20127;-50
2022/09/04 07:21:47;;;;;;;6.30;3.10;;;;;;;21.12;93.75;100732.31;8390871;28;20040;-49
2022/09/04 07:26:16;;;;;;;4.60;3.58;;;;;;;21.40;91.93;100746.00;8393251;28;20052;-51
2022/09/04 07:30:18;;;;;;;4.40;3.10;;;;;;;21.87;90.03;100744.09;8389982;28;20085;-49
2022/09/04 07:34:32;;;;;;;3.78;3.28;;;;;;;21.86;89.08;100747.88;8394927;28;20465;-52
2022/09/04 07:38:51;;;;;;;4.88;3.22;;;;;;;22.02;88.87;100755.75;8409012;28;20062;-50
2022/09/04 07:43:05;;;;;;;2.80;2.60;;;;;;;22.10;89.52;100752.81;8416972;28;20040;-48
2022/09/04 07:47:29;;;;;;;7.47;3.28;;;;;;;22.38;89.07;100753.47;8389083;28;20037;-47
2022/09/04 07:51:40;;;;;;;3.92;2.95;;;;;;;22.32;86.88;100762.59;8409950;28;20062;-48
2022/09/04 07:55:49;;;;;;;4.90;2.70;;;;;;;22.51;86.98;100756.25;8397014;28;20409;-50
2022/09/04 08:04:49;;;;;;;4.65;2.65;;;;;;;23.28;83.99;100772.97;8332547;28;20942;-51
2022/09/04 08:14:05;;;;;;;2.38;2.13;;;;;;;23.50;80.46;100776.28;8337017;27;20396;-48
2022/09/04 08:18:45;;;;;;;2.85;2.35;;;;;;;23.83;81.38;100788.03;8308515;28;20033;-49
2022/09/04 08:23:15;;;;;;;4.95;2.65;;;;;;;23.87;80.26;100790.13;8264440;28;20042;-50
2022/09/04 08:27:48;;;;;;;3.83;2.10;;;;;;;24.14;80.28;100791.72;8278252;28;20126;-48
2022/09/04 08:32:16;;;;;;;2.58;2.00;;;;;;;24.47;77.74;100791.50;8280683;28;20156;-49
2022/09/04 08:40:57;;;;;;;3.30;1.70;;;;;;;25.12;74.31;100803.94;8329747;27;20933;-48
2022/09/04 08:45:32;;;;;;;2.65;1.90;;;;;;;25.24;73.24;100794.66;8307094;28;20634;-48
2022/09/04 08:50:01;;;;;;;2.28;1.50;;;;;;;25.31;73.73;100806.50;8299405;28;20042;-51
2022/09/04 08:54:39;;;;;;;2.20;1.30;;;;;;;25.09;73.71;100807.16;8307193;28;20049;-51
2022/09/04 08:59:13;;;;;;;2.03;1.30;;;;;;;25.32;71.32;100802.69;8307138;28;20458;-50
2022/09/04 09:03:53;;;;;;;2.38;1.08;;;;;;;25.35;72.44;100801.38;8305822;28;20036;-50
2022/09/04 09:08:12;;;;;;;1.92;1.30;;;;;;;25.03;72.78;100808.91;8297552;28;20045;-48
2022/09/04 09:12:43;;;;;;;2.00;1.17;;;;;;;25.20;72.07;100804.50;8282751;28;20042;-49
2022/09/04 09:17:11;;;;;;;1.77;1.27;;;;;;;25.17;71.63;100810.47;8300236;28;20066;-48
2022/09/04 09:21:51;;;;;;;1.38;1.10;;;;;;;25.65;69.64;100803.16;8294477;28;20467;-49
2022/09/04 09:26:32;;;;;;;1.42;0.90;;;;;;;26.26;71.10;100801.06;8301051;28;20096;-47
2022/09/04 09:30:53;;;;;;;2.55;0.98;;;;;;;27.14;67.53;100803.94;8295583;28;20242;-48
2022/09/04 09:35:29;;;;;;;3.30;1.10;;;;;;;28.39;63.22;100801.13;8280134;28;20038;-48
2022/09/04 09:40:05;;;;;;;1.70;1.20;;;;;;;30.55;58.15;100793.19;8281701;28;20565;-50
2022/09/04 09:44:29;;;;;;;2.65;1.25;;;;;;;31.94;54.02;100798.97;8284458;28;20783;-49
2022/09/04 09:49:09;;;;;;;1.83;1.10;;;;;;;31.83;54.48;100797.25;8296420;28;20074;-49
2022/09/04 09:57:59;;;;;;;1.48;1.00;;;;;;;33.29;51.33;100795.53;8388869;27;20636;-48
2022/09/04 10:02:39;;;;;;;3.53;1.42;;;;;;;34.72;49.26;100795.50;8353805;28;20450;-51
2022/09/04 10:07:20;;;;;;;1.95;1.27;;;;;;;34.26;48.32;100805.31;8349809;28;20049;-49
2022/09/04 10:11:51;;;;;;;1.73;0.95;;;;;;;34.06;48.07;100788.59;8367245;28;20250;-49
2022/09/04 10:16:24;;;;;;;1.33;1.23;;;;;;;33.22;51.28;100789.38;8370719;28;20076;-49
2022/09/04 10:21:00;;;;;;;2.05;1.00;;;;;;;33.78;49.82;100788.13;8371851;28;20057;-50
2022/09/04 10:25:40;;;;;;;3.75;1.23;;;;;;;33.50;49.45;100797.22;8367173;28;20117;-48
2022/09/04 10:30:20;;;;;;;1.02;0.75;;;;;;;30.59;54.89;100783.16;8356029;28;20041;-49
2022/09/04 10:40:34;;;;;;;1.73;1.23;;;;;;;27.52;63.26;100782.06;8363562;27;20394;-49
2022/09/04 10:43:40;;;;;;;7.50;1.15;;;;;;;26.81;64.74;100785.91;8340008;28;20570;-51
2022/09/04 10:48:13;;;;;;;2.40;1.20;;;;;;;26.60;64.44;100786.44;8330561;28;20041;-51
2022/09/04 10:52:39;;;;;;;1.40;1.30;;;;;;;26.55;64.28;100780.78;8340694;28;20052;-50
2022/09/04 11:01:47;;;;;;;3.00;1.10;;;;;;;28.08;61.45;100787.72;8341074;28;20414;-49
2022/09/04 11:06:24;;;;;;;1.48;1.05;;;;;;;32.96;51.21;100784.91;8317645;28;20041;-52
2022/09/04 11:10:39;;;;;;;0.93;0.75;;;;;;;33.60;49.62;100787.94;8322810;28;20075;-50
2022/09/04 11:15:20;;;;;;;1.52;0.90;;;;;;;32.26;50.40;100784.78;8317541;28;20053;-53
2022/09/04 11:24:13;;;;;;;2.88;0.82;;;;;;;29.50;56.22;100785.19;8308633;27;20785;-54
2022/09/04 11:28:45;;;;;;;1.77;1.20;;;;;;;28.59;58.14;100787.59;8319924;28;20041;-53
2022/09/04 11:33:29;;;;;;;1.17;0.90;;;;;;;28.32;58.28;100770.69;8323269;28;20044;-51
2022/09/04 11:42:34;;;;;;;1.30;1.10;;;;;;;30.04;57.11;100777.81;8379372;27;20123;-48
2022/09/04 11:47:14;;;;;;;2.65;1.02;;;;;;;32.24;50.32;100781.44;8370458;28;20052;-52
2022/09/04 12:00:14;;;;;;;3.03;0.90;;;;;;;31.22;51.37;100788.75;8390672;27;20372;-52
2022/09/04 12:04:48;;;;;;;1.38;0.93;;;;;;;31.15;52.18;100788.13;8356576;27;20164;-49
2022/09/04 12:09:29;;;;;;;1.55;0.85;;;;;;;31.54;50.17;100783.94;8361456;28;20406;-54
2022/09/04 12:13:56;;;;;;;1.13;0.80;;;;;;;32.35;49.32;100788.75;8348856;28;20040;-51
2022/09/04 12:23:09;;;;;;;2.95;0.95;;;;;;;30.44;52.63;100784.69;8391152;27;20397;-52
2022/09/04 12:27:45;;;;;;;2.37;0.87;;;;;;;29.59;53.35;100785.56;8391129;28;20036;-49
2022/09/04 12:32:14;;;;;;;2.15;1.50;;;;;;;29.07;56.65;100785.13;8394856;28;20117;-51
2022/09/04 12:41:11;;;;;;;3.97;0.95;;;;;;;28.55;56.28;100780.88;8296525;28;20427;-52
2022/09/04 12:45:26;;;;;;;1.13;0.80;;;;;;;29.00;55.57;100783.56;8305188;28;20437;-48
2022/09/04 12:54:07;;;;;;;1.30;0.90;;;;;;;29.00;52.53;100784.38;8285930;28;20464;-48
2022/09/04 12:58:32;;;;;;;;;;;;;;;28.77;53.51;100784.56;8286764;28;20049;-53
2022/09/04 13:03:00;;;;;;;1.27;1.10;;;;;;;28.76;55.42;100773.69;8305787;28;20007;-52
2022/09/04 13:07:40;;;;;;;2.97;1.20;;;;;;;28.73;54.17;100772.28;8305592;28;20402;-49
2022/09/04 13:12:03;;;;;;;1.00;0.80;;;;;;;29.10;53.35;100778.19;8308046;28;20048;-52
2022/09/04 13:16:31;;;;;;;2.50;1.17;;;;;;;28.90;52.50;100789.81;8301936;28;20076;-53
2022/09/04 13:20:55;;;;;;;1.25;1.05;;;;;;;28.61;53.71;100791.00;8307409;28;20033;-52
2022/09/04 13:25:14;;;;;;;1.35;1.08;;;;;;;28.53;53.33;100789.47;8303150;28;20125;-53
2022/09/04 13:29:35;;;;;;;1.95;1.05;;;;;;;28.88;52.49;100786.44;8303276;28;20038;-54
2022/09/04 13:34:02;;;;;;;1.95;1.33;;;;;;;28.94;50.82;100790.97;8310009;28;20121;-53
2022/09/04 13:38:43;;;;;;;2.55;1.50;;;;;;;29.20;51.27;100784.75;8311160;28;20045;-51
2022/09/04 13:43:11;;;;;;;2.65;1.60;;;;;;;29.05;50.29;100787.28;8270641;28;20038;-53
2022/09/04 13:47:19;;;;;;;2.72;1.30;;;;;;;29.11;51.16;100796.56;8277789;28;20472;-53
2022/09/04 13:51:28;;;;;;;1.85;1.30;;;;;;;28.91;50.61;100802.66;8273914;28;20392;-53
2022/09/04 13:55:38;;;;;;;4.68;1.70;;;;;;;28.25;51.01;100799.75;8277183;28;20103;-51
2022/09/04 13:59:40;;;;;;;3.55;1.60;;;;;;;28.77;50.30;100794.84;8273005;28;20041;-53
2022/09/04 14:08:01;;;;;;;2.83;1.65;;;;;;;28.65;49.65;100786.59;8395597;27;20895;-51
2022/09/04 14:12:30;;;;;;;1.98;1.65;;;;;;;28.58;50.92;100797.06;8383703;27;20059;-53
2022/09/04 14:16:35;;;;;;;2.80;1.63;;;;;;;29.03;50.12;100795.00;8380002;27;20036;-52
2022/09/04 14:20:56;;;;;;;2.13;1.30;;;;;;;28.93;49.30;100789.28;8402235;27;20048;-51
2022/09/04 14:25:23;;;;;;;2.92;1.40;;;;;;;28.82;49.67;100793.03;8377325;27;20051;-50
2022/09/04 14:30:04;;;;;;;1.85;1.45;;;;;;;29.00;49.34;100789.94;8369865;28;20056;-53
2022/09/04 14:34:26;;;;;;;1.80;1.45;;;;;;;28.70;49.82;100783.06;8397452;27;20051;-52
2022/09/04 14:39:06;;;;;;;3.03;1.48;;;;;;;28.61;49.68;100779.84;8393472;28;20040;-52
2022/09/04 14:43:21;;;;;;;2.88;1.50;;;;;;;28.60;49.63;100783.72;8393061;28;20032;-52
2022/09/04 14:47:53;;;;;;;3.17;1.30;;;;;;;28.97;49.33;100779.31;8386406;28;21805;-53
2022/09/04 14:51:55;;;;;;;3.43;1.73;;;;;;;29.08;49.11;100780.38;8396413;28;20048;-53
2022/09/04 14:56:17;;;;;;;2.25;1.70;;;;;;;28.87;48.99;100779.16;8383572;28;20055;-52
2022/09/04 15:00:19;;;;;;;3.40;1.90;;;;;;;29.18;48.43;100775.78;8387248;28;20047;-52
2022/09/04 15:04:25;;;;;;;4.40;1.40;;;;;;;28.98;48.91;100783.81;8393798;28;20506;-53
2022/09/04 15:08:31;;;;;;;4.88;1.50;;;;;;;28.80;48.94;100778.50;8385074;28;20079;-52
2022/09/04 15:12:35;;;;;;;4.10;1.73;;;;;;;28.83;49.69;100778.00;8402290;28;20344;-53
2022/09/04 15:21:24;;;;;;;3.30;1.80;;;;;;;28.57;48.31;100773.09;8397144;27;20392;-52
2022/09/04 15:25:45;;;;;;;2.63;1.50;;;;;;;28.40;48.62;100761.06;8365607;28;20048;-52
2022/09/04 15:30:05;;;;;;;2.05;1.40;;;;;;;28.78;50.05;100769.56;8352195;28;20029;-51
2022/09/04 15:34:09;;;;;;;1.92;1.13;;;;;;;28.50;48.43;100762.13;8337496;28;20045;-52
2022/09/04 15:38:20;;;;;;;2.25;1.60;;;;;;;28.51;49.23;100762.97;8385746;28;20045;-52
2022/09/04 15:42:43;;;;;;;3.83;1.58;;;;;;;28.59;49.29;100759.78;8338221;28;20323;-49
2022/09/04 15:47:10;;;;;;;2.25;1.65;;;;;;;28.53;48.36;100769.97;8358265;28;20082;-49
2022/09/04 15:51:19;;;;;;;2.15;1.45;;;;;;;28.47;49.85;100770.13;8341593;28;20648;-50
2022/09/04 15:55:39;;;;;;;2.47;1.58;;;;;;;28.25;50.39;100769.13;8341517;28;20549;-50
2022/09/04 16:04:17;;;;;;;3.58;1.48;;;;;;;28.29;50.83;100773.09;8325460;27;20549;-47
2022/09/04 16:08:35;;;;;;;3.78;1.20;;;;;;;28.27;50.61;100772.53;8303667;28;20091;-47
2022/09/04 16:12:47;;;;;;;3.58;1.60;;;;;;;28.17;50.75;100772.31;8302663;28;20045;-46
2022/09/04 16:16:53;;;;;;;2.63;1.45;;;;;;;28.23;49.99;100760.19;8303553;28;20087;-46
2022/09/04 16:20:58;;;;;;;3.20;1.52;;;;;;;28.30;49.19;100760.91;8300428;28;20042;-49
2022/09/04 16:25:23;;;;;;;2.33;1.40;;;;;;;28.22;49.18;100767.72;8301622;28;20486;-49
2022/09/04 16:29:35;;;;;;;2.05;1.45;;;;;;;28.14;52.93;100761.69;8292245;28;20108;-49
2022/09/04 16:38:15;;;;;;;1.67;1.30;;;;;;;28.33;48.92;100760.41;8383614;27;20397;-48
2022/09/04 16:42:27;;;;;;;3.58;1.30;;;;;;;28.20;49.10;100766.25;8387750;28;20098;-48
2022/09/04 16:46:31;;;;;;;2.78;1.13;;;;;;;28.19;49.10;100764.56;8384657;28;20054;-49
2022/09/04 16:50:41;;;;;;;2.10;1.13;;;;;;;28.17;49.58;100761.19;8384434;28;20109;-47
2022/09/04 16:54:49;;;;;;;2.97;1.42;;;;;;;28.03;50.99;100755.09;8375706;28;20037;-47
2022/09/04 16:58:53;;;;;;;4.45;1.20;;;;;;;27.97;52.30;100749.69;8389343;28;20060;-48
2022/09/04 17:03:00;;;;;;;;;;;;;;;27.79;53.11;100747.06;8387218;28;20091;-47
2022/09/04 17:07:16;;;;;;;4.72;1.20;;;;;;;27.64;54.30;100755.09;8385929;28;19952;-47
2022/09/04 17:11:30;;;;;;;3.20;1.30;;;;;;;27.57;55.06;100754.41;8372602;28;20040;-47
2022/09/04 17:15:57;;;;;;;3.17;1.30;;;;;;;27.41;56.61;100744.06;8366768;28;20048;-48
2022/09/04 17:20:00;;;;;;;2.28;1.38;;;;;;;27.48;55.38;100744.75;8372712;28;20075;-49
2022/09/04 17:24:10;;;;;;;3.13;1.10;;;;;;;27.34;56.34;100748.88;8374952;28;20383;-47
2022/09/04 17:32:28;;;;;;;3.97;1.20;;;;;;;27.21;55.41;100747.19;8389034;27;20391;-46
2022/09/04 17:36:42;;;;;;;4.82;1.60;;;;;;;27.04;56.62;100748.16;8331595;28;20183;-46
2022/09/04 17:41:23;;;;;;;2.28;1.60;;;;;;;26.95;57.08;100744.06;8363374;28;20095;-47
2022/09/04 17:49:51;;;;;;;2.05;1.27;;;;;;;26.73;58.40;100752.97;8341545;27;20904;-47
2022/09/04 17:53:57;;;;;;;2.15;1.50;;;;;;;26.61;58.91;100749.31;8327700;28;20072;-46
2022/09/04 17:58:23;;;;;;;2.22;1.23;;;;;;;26.47;59.77;100758.94;8340037;28;20025;-47
2022/09/04 18:02:53;;;;;;;5.72;2.03;;;;;;;26.36;59.76;100767.22;8305811;28;20411;-46
2022/09/04 18:07:19;;;;;;;2.20;1.92;;;;;;;26.11;60.65;100770.19;8299915;28;20052;-47
2022/09/04 18:11:27;;;;;;;2.28;1.40;;;;;;;25.90;61.76;100773.44;8302079;28;20129;-47
2022/09/04 18:15:35;;;;;;;4.03;1.60;;;;;;;25.72;62.53;100781.75;8300338;28;20565;-47
2022/09/04 18:19:46;;;;;;;2.15;1.70;;;;;;;25.65;62.82;100792.09;8297955;28;20070;-49
2022/09/04 18:24:00;;;;;;;3.47;1.63;;;;;;;25.55;63.37;100788.16;8306427;28;20125;-46
2022/09/04 18:28:14;;;;;;;;;;;;;;;25.41;64.03;100795.78;8307809;28;20435;-47
2022/09/04 18:32:25;;;;;;;2.38;1.60;;;;;;;24.92;67.96;100806.91;8296778;28;19924;-47
2022/09/04 18:36:35;;;;;;;2.50;1.60;;;;;;;24.35;69.63;100815.38;8310749;28;20533;-47
2022/09/04 18:40:44;;;;;;;3.15;1.92;;;;;;;23.65;74.24;100812.75;8322235;28;20590;-46
2022/09/04 18:44:51;;;;;;;1.75;1.40;;;;;;;23.26;76.19;100819.22;8298710;28;20447;-47
2022/09/04 18:49:03;;;;;;;2.78;2.00;;;;;;;23.65;72.95;100818.25;8305977;28;20599;-46
2022/09/04 18:53:26;;;;;;;3.63;2.05;;;;;;;23.40;75.59;100820.03;8309835;28;20053;-47
2022/09/04 18:57:39;;;;;;;3.50;1.87;;;;;;;23.15;76.05;100828.97;8303920;28;20048;-46
2022/09/04 19:01:59;;;;;;;2.45;2.10;;;;;;;23.36;73.92;100825.13;8302804;28;20042;-46
2022/09/04 19:06:08;;;;;;;3.90;1.98;;;;;;;22.88;76.39;100832.81;8288377;28;20057;-47
2022/09/04 19:10:35;;;;;;;3.08;2.10;;;;;;;22.79;77.26;100833.25;8308772;28;20510;-46
2022/09/04 19:14:41;;;;;;;3.10;2.20;;;;;;;22.87;76.26;100841.28;8312043;28;20037;-46
2022/09/04 19:18:49;;;;;;;1.92;1.30;;;;;;;22.74;77.20;100836.66;8292865;28;20081;-47
2022/09/04 19:22:54;;;;;;;2.13;1.90;;;;;;;22.37;79.91;100834.44;8293270;28;20053;-46
2022/09/04 19:31:15;;;;;;;4.75;3.28;;;;;;;22.57;78.27;100845.53;8404950;27;20484;-47
2022/09/04 19:35:28;;;;;;;3.63;1.65;;;;;;;22.63;77.03;100845.53;8378810;28;20494;-46
2022/09/04 19:39:46;;;;;;;2.60;1.93;;;;;;;22.60;78.33;100840.44;8375606;28;20124;-46
2022/09/04 19:43:59;;;;;;;2.38;2.03;;;;;;;22.21;81.43;100850.53;8332134;28;21121;-46
2022/09/04 19:52:39;;;;;;;2.45;2.10;;;;;;;22.00;81.99;100854.28;8339981;27;20391;-49
2022/09/04 19:56:46;;;;;;;3.60;2.10;;;;;;;21.86;83.80;100852.50;8299274;28;20042;-48
2022/09/04 20:00:54;;;;;;;2.40;2.00;;;;;;;21.85;84.33;100856.31;8304454;28;20499;-51
2022/09/04 20:05:00;;;;;;;2.58;2.38;;;;;;;21.88;84.61;100849.53;8293393;28;20496;-48
2022/09/04 20:09:08;;;;;;;3.70;2.65;;;;;;;21.68;85.31;100854.94;8304199;28;20045;-47
2022/09/04 20:18:02;;;;;;;4.90;2.28;;;;;;;21.96;82.85;100869.47;8306654;28;20410;-46
2022/09/04 20:22:15;;;;;;;3.25;2.55;;;;;;;21.72;85.98;100871.88;8276189;28;20030;-46
2022/09/04 20:26:23;;;;;;;3.95;2.20;;;;;;;20.96;90.15;100864.63;8265476;28;20169;-46
2022/09/04 20:30:24;;;;;;;2.92;2.60;;;;;;;20.99;89.26;100875.22;8271861;28;20081;-48
2022/09/04 20:34:48;;;;;;;4.63;2.00;;;;;;;21.00;86.20;100876.91;8270450;28;20037;-46
2022/09/04 20:39:07;;;;;;;4.40;2.85;;;;;;;21.43;86.06;100873.00;8264152;28;20066;-46
2022/09/04 20:43:25;;;;;;;4.40;2.78;;;;;;;21.28;86.08;100877.75;8270193;28;20041;-46
2022/09/04 20:47:55;;;;;;;3.22;2.38;;;;;;;20.85;89.33;100878.84;8277970;28;20057;-46
2022/09/04 20:52:02;;;;;;;3.95;3.10;;;;;;;20.79;89.66;100875.00;8270923;28;20046;-46
2022/09/04 20:56:39;;;;;;;4.75;2.95;;;;;;;20.61;90.44;100876.50;8260532;28;20518;-47
2022/09/04 21:01:06;;;;;;;3.65;2.88;;;;;;;20.61;90.86;100887.50;8274873;28;20523;-47
2022/09/04 21:05:46;;;;;;;6.80;2.67;;;;;;;21.09;87.60;100886.72;8251920;28;20129;-46
2022/09/04 21:10:18;;;;;;;4.60;3.17;;;;;;;20.57;91.31;100891.69;8261249;28;20435;-46
2022/09/04 21:14:38;;;;;;;3.72;2.90;;;;;;;20.35;92.70;100885.34;8282768;28;20069;-46
2022/09/04 21:19:07;;;;;;;5.53;3.42;;;;;;;20.45;90.85;100887.75;8282841;28;20454;-47
2022/09/04 21:23:37;;;;;;;6.55;3.08;;;;;;;20.35;91.90;100887.25;8282876;28;20068;-51
2022/09/04 21:28:08;;;;;;;3.35;2.97;;;;;;;20.40;92.63;100887.53;8258318;28;20054;-47
2022/09/04 21:32:47;;;;;;;4.57;2.85;;;;;;;20.15;91.66;100884.25;8226953;28;20713;-47
2022/09/04 21:36:58;;;;;;;3.67;3.00;;;;;;;19.90;93.85;100882.00;8247104;28;20102;-48
2022/09/04 21:41:18;;;;;;;3.78;2.50;;;;;;;20.07;91.83;100878.00;8260490;28;20038;-47
2022/09/04 21:45:40;;;;;;;2.78;2.50;;;;;;;20.15;90.36;100886.16;8242479;28;20049;-48
2022/09/04 21:54:30;;;;;;;19.08;3.17;;;;;;;19.96;90.78;100882.09;8395667;27;20205;-46
2022/09/04 21:59:10;;;;;;;6.50;2.85;;;;;;;20.01;89.65;100893.38;8375929;28;20561;-47
2022/09/04 22:03:29;;;;;;;3.28;2.60;;;;;;;20.25;85.85;100887.53;8374183;28;20656;-47
2022/09/04 22:07:44;;;;;;;3.25;2.38;;;;;;;20.29;85.09;100883.38;8379390;28;20044;-49
2022/09/04 22:16:25;;;;;;;2.67;2.42;;;;;;;20.16;85.64;100885.13;8287412;28;20386;-46
2022/09/04 22:25:38;;;;;;;3.88;3.15;;;;;;;19.97;85.27;100888.47;8356500;27;20339;-52
2022/09/04 22:30:02;;;;;;;5.03;3.25;;;;;;;19.80;86.38;100903.41;8346035;28;20053;-53
2022/09/04 22:39:18;;;;;;;3.70;3.00;;;;;;;19.70;85.40;100889.16;8390596;27;20388;-52
2022/09/04 22:43:22;;;;;;;5.05;2.80;;;;;;;19.69;86.39;100914.84;8352794;28;20048;-52
2022/09/04 22:48:02;;;;;;;5.67;2.47;;;;;;;19.55;86.12;100921.22;8362072;28;20033;-50
2022/09/04 22:56:45;;;;;;;6.88;2.78;;;;;;;18.94;91.12;100912.19;8375762;27;20441;-52
2022/09/04 23:01:15;;;;;;;7.68;3.30;;;;;;;18.66;94.01;100913.78;8373017;28;20037;-53
2022/09/04 23:05:55;;;;;;;3.10;2.90;;;;;;;18.65;93.48;100916.72;8383571;28;20401;-52